Airfield :
LOGIN :

Register | Disclaimer

   EN    FR    IT 

 










Legend :    VFR   Marginal VFR   IFR   Intensive IFR   Very Intensive IFR
Visi :
Ceiling :
>= 8 km
>= 3000ft
5 to 8 km
1000 to 3000 ft
1500m to 5 km
500 to 1000 ft
800 to 1500m
200 to 500 ft
< 800m
< 200 ft
Symbols :   Thunderstorms  Fog  Heavy snow  Heavy precipitations  Wind > 20 kt
SIGMETs :     Misc.  Thunderstorms  Icing  Turbulence  Mountain Waves  Volcanic Ashes







- Airport Elevation : 327 ft
- IATA code : BHX
- Download approach charts


EGBB - Birmingham

CURRENT METAR :
  • 190820Z 22006KT 180V250 9999 BKN013 17/15 Q1022

EXPIRED METARs :
  • 190750Z 24006KT 200V290 9999 BKN014 18/15 Q1022
  • 190720Z 25005KT 200V280 9999 BKN014 17/15 Q1022
  • 190650Z 26005KT 9999 SCT012 BKN021 16/14 Q1022
  • 190620Z 23005KT 190V260 9999 -SHRA SCT015 BKN024 16/15 Q1022
  • 190550Z 22006KT 190V260 9999 -SHRA FEW012 BKN018 16/15 Q1021
  • 190520Z 24006KT 200V280 9999 SCT017 16/14 Q1021

TAF TAF EGBB
Valid from the 19 at 06:00 until the 20 at 06:00 UTC


190458Z 1906/2006 23006KT 9999 FEW012 SCT018
TEMPO 1906/1910 BKN012
PROB30
TEMPO 1906/1908 9000 -RADZ BKN009
PROB40
TEMPO 1915/1924 BKN014
BECMG 2000/2003 BKN012
PROB40
TEMPO 2001/2006 BKN007
ATIS : +44 121 780 0910
No reported NOTAMs for that airfield.
1 SIGMET reported for the London FIR (EGTT) :
 
Severe mountain waves
EGTT SIGMET 01 VALID 190605/191000 EGRR
EGTT LONDON FIR SEV MTW FCST WI N5500 E00200 - N5330 E00200 - N5330 W00300 - N5500 W00500 - N5500 E00200 FL040/240 STNR NC=



MET'MAP, your aeronautical weather chart ! - Copyright ORBIFLY December 2007 - Disclaimer

ORBIFLY MET'MAP TEAM :

Programming & Development : Alexandra Zaïnal
Concept & Development : Baudouin d'Aumeries
Co-Development & Prog : Marc-Olivier Méhu
Technical & hardware support : Manuel Goepfert

Contact : metmap@orbifly.com




SOURCES & CREDITS :

   NOAA